createdAt,value
2019-01-17T00:00:36.460Z,4.77
2019-01-17T00:01:36.399Z,4.78
2019-01-17T00:02:36.462Z,4.80
2019-01-17T00:03:36.422Z,4.80
2019-01-17T00:04:36.395Z,4.81
2019-01-17T00:05:36.392Z,4.84
2019-01-17T00:06:36.485Z,4.87
2019-01-17T00:07:36.474Z,4.88
2019-01-17T00:08:36.404Z,4.89
2019-01-17T00:09:36.419Z,4.89
2019-01-17T00:10:36.395Z,4.88
2019-01-17T00:11:36.465Z,4.88
2019-01-17T00:12:36.436Z,4.89
2019-01-17T00:13:36.411Z,4.91
2019-01-17T00:14:36.406Z,4.91
2019-01-17T00:15:36.488Z,4.92
2019-01-17T00:16:36.468Z,4.91
2019-01-17T00:17:36.500Z,4.89
2019-01-17T00:18:36.468Z,4.91
2019-01-17T00:19:36.411Z,4.91
2019-01-17T00:20:36.469Z,4.91
2019-01-17T00:21:36.407Z,4.91
2019-01-17T00:22:36.416Z,4.91
2019-01-17T00:23:36.481Z,4.92
2019-01-17T00:24:36.473Z,4.92
2019-01-17T00:25:36.410Z,4.92
2019-01-17T00:26:36.345Z,4.92
2019-01-17T00:27:36.347Z,4.93
2019-01-17T00:28:36.423Z,4.93
2019-01-17T00:29:36.396Z,4.98
2019-01-17T00:30:36.397Z,4.99
2019-01-17T00:31:36.295Z,5.00
2019-01-17T00:32:36.358Z,5.00
2019-01-17T00:33:36.414Z,5.02
2019-01-17T00:34:36.303Z,5.02
2019-01-17T00:35:36.429Z,5.04
2019-01-17T00:36:36.441Z,5.04
2019-01-17T00:37:36.469Z,5.03
2019-01-17T00:38:36.377Z,5.03
2019-01-17T00:39:36.354Z,5.02
2019-01-17T00:40:36.381Z,5.02
2019-01-17T00:41:36.384Z,5.03
2019-01-17T00:42:36.473Z,5.02
2019-01-17T00:43:36.428Z,5.02
2019-01-17T00:44:36.359Z,5.02
2019-01-17T00:45:36.387Z,5.03
2019-01-17T00:46:36.445Z,5.03
2019-01-17T00:47:36.495Z,5.03
2019-01-17T00:48:36.512Z,5.04
2019-01-17T00:49:36.494Z,5.03
2019-01-17T00:50:36.489Z,5.04
2019-01-17T00:51:36.501Z,5.03
2019-01-17T00:52:36.425Z,5.02
2019-01-17T00:53:36.500Z,5.02
2019-01-17T00:54:36.432Z,5.02
2019-01-17T00:55:36.495Z,5.02
2019-01-17T00:56:36.445Z,5.03
2019-01-17T00:57:36.427Z,5.03
2019-01-17T00:58:36.498Z,5.04
2019-01-17T00:59:36.430Z,5.06
2019-01-17T01:00:36.504Z,5.06
2019-01-17T01:01:36.437Z,5.06
2019-01-17T01:02:36.434Z,5.04
2019-01-17T01:03:36.440Z,5.04
2019-01-17T01:04:36.524Z,5.03
2019-01-17T01:05:36.438Z,5.02
2019-01-17T01:06:36.507Z,5.03
2019-01-17T01:07:36.455Z,5.03
2019-01-17T01:08:36.442Z,5.04
2019-01-17T01:09:36.508Z,5.04
2019-01-17T01:10:36.408Z,5.06
2019-01-17T01:11:36.448Z,5.07
2019-01-17T01:12:36.516Z,5.07
2019-01-17T01:13:36.441Z,5.06
2019-01-17T01:14:36.441Z,5.06
2019-01-17T01:15:36.491Z,5.07
2019-01-17T01:16:36.506Z,5.10
2019-01-17T01:17:36.505Z,5.10
2019-01-17T01:18:36.433Z,5.09
2019-01-17T01:19:36.505Z,5.10
2019-01-17T01:20:36.504Z,5.09
2019-01-17T01:21:36.433Z,5.07
2019-01-17T01:22:36.512Z,5.07
2019-01-17T01:23:36.513Z,5.07
2019-01-17T01:24:36.432Z,5.07
2019-01-17T01:25:36.516Z,5.06
2019-01-17T01:26:36.450Z,5.06
2019-01-17T01:27:36.522Z,5.06
2019-01-17T01:28:36.453Z,5.06
2019-01-17T01:29:36.476Z,5.06
2019-01-17T01:30:36.465Z,5.06
2019-01-17T01:31:36.456Z,5.04
2019-01-17T01:32:36.523Z,5.07
2019-01-17T01:33:36.523Z,5.07
2019-01-17T01:34:36.455Z,5.06
2019-01-17T01:35:36.527Z,5.06
2019-01-17T01:36:36.415Z,5.06
2019-01-17T01:37:36.442Z,5.06
2019-01-17T01:38:36.397Z,5.06
2019-01-17T01:39:36.452Z,5.04
2019-01-17T01:40:36.474Z,5.03
2019-01-17T01:41:36.458Z,5.02
2019-01-17T01:42:36.353Z,5.00
2019-01-17T01:43:36.349Z,4.99
2019-01-17T01:44:36.405Z,4.99
2019-01-17T01:45:36.463Z,4.96
2019-01-17T01:46:36.527Z,4.92
2019-01-17T01:47:36.519Z,4.91
2019-01-17T01:48:36.436Z,4.92
2019-01-17T01:49:36.455Z,4.91
2019-01-17T01:50:36.452Z,4.89
2019-01-17T01:51:36.458Z,4.87
2019-01-17T01:52:36.539Z,4.84
2019-01-17T01:53:36.523Z,4.82
2019-01-17T01:54:36.481Z,4.81
2019-01-17T01:55:36.464Z,4.78
2019-01-17T01:56:36.486Z,4.78
2019-01-17T01:57:36.477Z,4.80
2019-01-17T01:58:36.475Z,4.80
2019-01-17T01:59:36.571Z,4.80
2019-01-17T02:00:36.477Z,4.80
2019-01-17T02:01:36.476Z,4.77
2019-01-17T02:02:36.507Z,4.78
2019-01-17T02:03:36.475Z,4.78
2019-01-17T02:04:36.485Z,4.75
2019-01-17T02:05:36.471Z,4.74
2019-01-17T02:06:36.547Z,4.71
2019-01-17T02:07:36.490Z,4.70
2019-01-17T02:08:36.552Z,4.70
2019-01-17T02:09:36.555Z,4.69
2019-01-17T02:10:36.483Z,4.69
2019-01-17T02:11:36.486Z,4.66
2019-01-17T02:12:36.484Z,4.64
2019-01-17T02:13:36.565Z,4.64
2019-01-17T02:14:36.488Z,4.63
2019-01-17T02:15:36.488Z,4.62
2019-01-17T02:16:36.539Z,4.62
2019-01-17T02:17:36.487Z,4.62
2019-01-17T02:18:36.529Z,4.60
2019-01-17T02:19:36.513Z,4.62
2019-01-17T02:20:36.544Z,4.63
2019-01-17T02:21:36.455Z,4.63
2019-01-17T02:22:36.450Z,4.62
2019-01-17T02:23:36.541Z,4.62
2019-01-17T02:24:36.453Z,4.60
2019-01-17T02:25:36.484Z,4.60
2019-01-17T02:26:36.433Z,4.62
2019-01-17T02:27:36.457Z,4.60
2019-01-17T02:28:36.451Z,4.60
2019-01-17T02:29:36.619Z,4.57
2019-01-17T02:30:36.495Z,4.55
2019-01-17T02:31:36.523Z,4.54
2019-01-17T02:32:36.562Z,4.52
2019-01-17T02:33:36.557Z,4.51
2019-01-17T02:34:36.446Z,4.50
2019-01-17T02:35:36.466Z,4.52
2019-01-17T02:36:36.484Z,4.54
2019-01-17T02:37:36.560Z,4.51
2019-01-17T02:38:36.488Z,4.51
2019-01-17T02:39:36.564Z,4.51
2019-01-17T02:40:36.498Z,4.48
2019-01-17T02:41:36.564Z,4.47
2019-01-17T02:42:36.493Z,4.51
2019-01-17T02:43:36.490Z,4.55
2019-01-17T02:44:36.507Z,4.59
2019-01-17T02:45:36.570Z,4.59
2019-01-17T02:46:36.515Z,4.57
2019-01-17T02:47:36.514Z,4.57
2019-01-17T02:48:36.513Z,4.59
2019-01-17T02:49:36.582Z,4.59
2019-01-17T02:50:36.514Z,4.62
2019-01-17T02:51:36.577Z,4.63
2019-01-17T02:52:36.522Z,4.64
2019-01-17T02:53:36.516Z,4.64
2019-01-17T02:54:36.588Z,4.63
2019-01-17T02:55:36.520Z,4.66
2019-01-17T02:56:36.448Z,4.66
2019-01-17T02:57:36.481Z,4.67
2019-01-17T02:58:36.454Z,4.69
2019-01-17T02:59:36.579Z,4.70
2019-01-17T03:00:36.462Z,4.70
2019-01-17T03:01:36.575Z,4.70
2019-01-17T03:02:36.513Z,4.71
2019-01-17T03:03:36.529Z,4.70
2019-01-17T03:04:36.452Z,4.70
2019-01-17T03:05:36.546Z,4.69
2019-01-17T03:06:36.602Z,4.69
2019-01-17T03:07:36.560Z,4.73
2019-01-17T03:08:36.591Z,4.77
2019-01-17T03:09:36.593Z,4.77
2019-01-17T03:10:36.637Z,4.78
2019-01-17T03:11:36.606Z,4.78
2019-01-17T03:12:36.529Z,4.80
2019-01-17T03:13:36.598Z,4.80
2019-01-17T03:14:36.531Z,4.80
2019-01-17T03:15:36.595Z,4.82
2019-01-17T03:16:36.600Z,4.81
2019-01-17T03:17:36.604Z,4.81
2019-01-17T03:18:36.500Z,4.81
2019-01-17T03:19:36.589Z,4.81
2019-01-17T03:20:36.517Z,4.80
2019-01-17T03:21:36.521Z,4.81
2019-01-17T03:22:36.600Z,4.85
2019-01-17T03:23:36.545Z,4.87
2019-01-17T03:24:42.757Z,4.87
2019-01-17T03:25:36.521Z,4.87
2019-01-17T03:26:36.600Z,4.87
2019-01-17T03:27:36.527Z,4.84
2019-01-17T03:28:36.526Z,4.87
2019-01-17T03:29:36.518Z,4.92
2019-01-17T03:30:36.598Z,4.93
2019-01-17T03:31:36.527Z,4.95
2019-01-17T03:32:36.619Z,4.96
2019-01-17T03:33:36.523Z,4.98
2019-01-17T03:34:36.601Z,4.96
2019-01-17T03:35:36.600Z,4.96
2019-01-17T03:36:36.618Z,4.96
2019-01-17T03:37:36.547Z,5.00
2019-01-17T03:38:36.540Z,5.02
2019-01-17T03:39:36.573Z,5.03
2019-01-17T03:40:36.517Z,5.02
2019-01-17T03:41:36.570Z,4.99
2019-01-17T03:42:36.552Z,4.98
2019-01-17T03:43:36.569Z,4.98
2019-01-17T03:44:36.578Z,4.98
2019-01-17T03:45:36.489Z,4.99
2019-01-17T03:46:36.541Z,4.98
2019-01-17T03:47:36.541Z,4.99
2019-01-17T03:48:36.465Z,4.99
2019-01-17T03:49:36.484Z,5.02
2019-01-17T03:50:36.491Z,5.04
2019-01-17T03:51:36.576Z,5.09
2019-01-17T03:52:36.446Z,5.11
2019-01-17T03:53:36.465Z,5.15
2019-01-17T03:54:36.505Z,5.14
2019-01-17T03:55:36.484Z,5.14
2019-01-17T03:56:36.558Z,5.10
2019-01-17T03:57:36.560Z,5.10
2019-01-17T03:58:36.560Z,5.07
2019-01-17T03:59:36.569Z,5.07
2019-01-17T04:00:36.605Z,5.06
2019-01-17T04:01:36.583Z,5.03
2019-01-17T04:02:36.569Z,5.02
2019-01-17T04:03:36.516Z,5.04
2019-01-17T04:04:36.566Z,5.04
2019-01-17T04:05:36.576Z,5.06
2019-01-17T04:06:36.663Z,5.07
2019-01-17T04:07:36.637Z,5.07
2019-01-17T04:08:36.635Z,5.06
2019-01-17T04:09:36.571Z,5.04
2019-01-17T04:10:36.567Z,5.03
2019-01-17T04:11:36.648Z,5.00
2019-01-17T04:12:36.636Z,4.98
2019-01-17T04:13:36.569Z,4.98
2019-01-17T04:14:36.639Z,4.93
2019-01-17T04:15:36.690Z,4.92
2019-01-17T04:16:36.573Z,4.89
2019-01-17T04:17:36.639Z,4.89
2019-01-17T04:18:36.593Z,4.89
2019-01-17T04:19:36.571Z,4.91
2019-01-17T04:20:36.641Z,4.91
2019-01-17T04:21:36.577Z,4.91
2019-01-17T04:22:36.586Z,4.89
2019-01-17T04:23:36.577Z,4.88
2019-01-17T04:24:36.647Z,4.89
2019-01-17T04:25:36.581Z,4.89
2019-01-17T04:26:36.461Z,4.88
2019-01-17T04:27:36.500Z,4.87
2019-01-17T04:28:36.469Z,4.87
2019-01-17T04:29:36.514Z,4.84
2019-01-17T04:30:36.462Z,4.84
2019-01-17T04:31:36.576Z,4.82
2019-01-17T04:32:36.549Z,4.81
2019-01-17T04:33:36.596Z,4.80
2019-01-17T04:34:36.595Z,4.80
2019-01-17T04:35:36.580Z,4.77
2019-01-17T04:36:36.612Z,4.75
2019-01-17T04:37:36.589Z,4.75
2019-01-17T04:38:36.572Z,4.74
2019-01-17T04:39:36.667Z,4.74
2019-01-17T04:40:36.586Z,4.73
2019-01-17T04:41:36.592Z,4.71
2019-01-17T04:42:36.656Z,4.71
2019-01-17T04:43:36.627Z,4.70
2019-01-17T04:44:36.672Z,4.71
2019-01-17T04:45:36.591Z,4.69
2019-01-17T04:46:36.661Z,4.69
2019-01-17T04:47:36.548Z,4.70
2019-01-17T04:48:36.539Z,4.69
2019-01-17T04:49:36.615Z,4.67
2019-01-17T04:50:36.610Z,4.66
2019-01-17T04:51:36.611Z,4.64
2019-01-17T04:52:36.536Z,4.64
2019-01-17T04:53:36.510Z,4.63
2019-01-17T04:54:36.619Z,4.63
2019-01-17T04:55:36.607Z,4.60
2019-01-17T04:56:36.615Z,4.59
2019-01-17T04:57:36.611Z,4.57
2019-01-17T04:58:36.670Z,4.54
2019-01-17T04:59:36.670Z,4.55
2019-01-17T05:00:36.628Z,4.52
2019-01-17T05:01:36.675Z,4.51
2019-01-17T05:02:36.607Z,4.48
2019-01-17T05:03:36.603Z,4.47
2019-01-17T05:04:36.685Z,4.44
2019-01-17T05:05:36.609Z,4.40
2019-01-17T05:06:36.703Z,4.40
2019-01-17T05:07:36.616Z,4.39
2019-01-17T05:08:36.680Z,4.37
2019-01-17T05:09:36.611Z,4.36
2019-01-17T05:10:36.606Z,4.35
2019-01-17T05:11:36.696Z,4.33
2019-01-17T05:12:36.608Z,4.33
2019-01-17T05:13:36.681Z,4.30
2019-01-17T05:14:36.735Z,4.29
2019-01-17T05:15:36.626Z,4.28
2019-01-17T05:16:36.626Z,4.28
2019-01-17T05:17:36.687Z,4.29
2019-01-17T05:18:36.616Z,4.28
2019-01-17T05:19:36.692Z,4.28
2019-01-17T05:20:36.700Z,4.26
2019-01-17T05:21:36.634Z,4.26
2019-01-17T05:22:36.614Z,4.24
2019-01-17T05:23:36.714Z,4.25
2019-01-17T05:24:36.697Z,4.26
2019-01-17T05:25:36.688Z,4.28
2019-01-17T05:26:36.703Z,4.28
2019-01-17T05:27:36.576Z,4.28
2019-01-17T05:28:36.637Z,4.29
2019-01-17T05:29:36.557Z,4.33
2019-01-17T05:30:36.641Z,4.35
2019-01-17T05:31:36.643Z,4.36
2019-01-17T05:32:36.918Z,4.36
2019-01-17T05:33:36.557Z,4.35
2019-01-17T05:34:39.484Z,4.33
2019-01-17T05:35:36.564Z,4.30
2019-01-17T05:36:36.672Z,4.26
2019-01-17T05:37:36.621Z,4.24
2019-01-17T05:38:36.649Z,4.24
2019-01-17T05:39:36.616Z,4.22
2019-01-17T05:40:36.620Z,4.18
2019-01-17T05:41:36.687Z,4.17
2019-01-17T05:42:36.711Z,4.14
2019-01-17T05:43:36.627Z,4.11
2019-01-17T05:44:36.691Z,4.07
2019-01-17T05:45:36.623Z,4.03
2019-01-17T05:46:36.695Z,4.00
2019-01-17T05:47:36.631Z,4.00
2019-01-17T05:48:36.520Z,3.97
2019-01-17T05:49:36.620Z,3.97
2019-01-17T05:50:36.705Z,3.99
2019-01-17T05:51:36.609Z,4.06
2019-01-17T05:52:36.644Z,4.11
2019-01-17T05:53:36.636Z,4.12
2019-01-17T05:54:36.636Z,4.14
2019-01-17T05:55:36.642Z,4.17
2019-01-17T05:56:36.551Z,4.17
2019-01-17T05:57:36.645Z,4.18
2019-01-17T05:58:36.708Z,4.18
2019-01-17T05:59:36.644Z,4.19
2019-01-17T06:00:36.649Z,4.21
2019-01-17T06:01:36.712Z,4.21
2019-01-17T06:02:36.712Z,4.21
2019-01-17T06:03:36.642Z,4.21
2019-01-17T06:04:36.800Z,4.19
2019-01-17T06:05:36.716Z,4.18
2019-01-17T06:06:36.653Z,4.15
2019-01-17T06:07:36.659Z,4.15
2019-01-17T06:08:36.730Z,4.15
2019-01-17T06:09:36.725Z,4.14
2019-01-17T06:10:36.654Z,4.14
2019-01-17T06:11:36.655Z,4.17
2019-01-17T06:12:36.724Z,4.22
2019-01-17T06:13:36.758Z,4.25
2019-01-17T06:14:36.653Z,4.28
2019-01-17T06:15:36.663Z,4.30
2019-01-17T06:16:36.689Z,4.32
2019-01-17T06:17:36.665Z,4.32
2019-01-17T06:18:36.734Z,4.32
2019-01-17T06:19:36.726Z,4.32
2019-01-17T06:20:36.731Z,4.39
2019-01-17T06:21:36.676Z,4.41
2019-01-17T06:22:36.750Z,4.41
2019-01-17T06:23:36.675Z,4.40
2019-01-17T06:24:36.793Z,4.39
2019-01-17T06:25:36.659Z,4.39
2019-01-17T06:26:36.658Z,4.37
2019-01-17T06:27:36.649Z,4.35
2019-01-17T06:28:36.649Z,4.32
2019-01-17T06:29:36.695Z,4.32
2019-01-17T06:30:36.646Z,4.30
2019-01-17T06:31:36.724Z,4.32
2019-01-17T06:32:36.722Z,4.30
2019-01-17T06:33:36.657Z,4.28
2019-01-17T06:34:36.786Z,4.33
2019-01-17T06:35:36.727Z,4.36
2019-01-17T06:36:36.725Z,4.39
2019-01-17T06:37:36.596Z,4.40
2019-01-17T06:38:36.686Z,4.40
2019-01-17T06:39:36.717Z,4.40
2019-01-17T06:40:36.604Z,4.39
2019-01-17T06:41:36.594Z,4.37
2019-01-17T06:42:36.608Z,4.37
2019-01-17T06:43:36.689Z,4.37
2019-01-17T06:44:36.615Z,4.35
2019-01-17T06:45:36.713Z,4.39
2019-01-17T06:46:36.601Z,4.37
2019-01-17T06:47:36.630Z,4.36
2019-01-17T06:48:36.697Z,4.33
2019-01-17T06:49:36.594Z,4.33
2019-01-17T06:50:36.671Z,4.32
2019-01-17T06:51:36.664Z,4.30
2019-01-17T06:52:36.645Z,4.30
2019-01-17T06:53:36.695Z,4.33
2019-01-17T06:54:36.599Z,4.36
2019-01-17T06:55:36.743Z,4.39
2019-01-17T06:56:36.619Z,4.37
2019-01-17T06:57:36.751Z,4.39
2019-01-17T06:58:36.752Z,4.39
2019-01-17T06:59:36.715Z,4.39
2019-01-17T07:00:36.698Z,4.39
2019-01-17T07:01:36.684Z,4.37
2019-01-17T07:02:36.758Z,4.39
2019-01-17T07:03:36.794Z,4.39
2019-01-17T07:04:36.693Z,4.40
2019-01-17T07:05:36.650Z,4.41
2019-01-17T07:06:36.690Z,4.43
2019-01-17T07:07:36.770Z,4.44
2019-01-17T07:08:36.758Z,4.51
2019-01-17T07:09:36.693Z,4.52
2019-01-17T07:10:36.761Z,4.52
2019-01-17T07:11:36.732Z,4.51
2019-01-17T07:12:36.706Z,4.51
2019-01-17T07:13:36.767Z,4.51
2019-01-17T07:14:36.693Z,4.51
2019-01-17T07:15:36.703Z,4.51
2019-01-17T07:16:36.703Z,4.51
2019-01-17T07:17:36.685Z,4.51
2019-01-17T07:18:36.759Z,4.51
2019-01-17T07:19:36.789Z,4.51
2019-01-17T07:20:36.759Z,4.51
2019-01-17T07:21:36.695Z,4.51
2019-01-17T07:22:36.776Z,4.51
2019-01-17T07:23:36.762Z,4.51
2019-01-17T07:24:36.700Z,4.51
2019-01-17T07:25:40.960Z,4.51
2019-01-17T07:26:36.689Z,4.51
2019-01-17T07:27:36.774Z,4.51
2019-01-17T07:28:36.701Z,4.51
2019-01-17T07:29:36.771Z,4.51
2019-01-17T07:30:36.698Z,4.51
2019-01-17T07:31:36.767Z,4.51
2019-01-17T07:32:36.773Z,4.51
2019-01-17T07:33:36.709Z,4.51
2019-01-17T07:34:36.771Z,4.51
2019-01-17T07:35:36.706Z,4.51
2019-01-17T07:36:36.771Z,4.51
2019-01-17T07:37:36.715Z,4.51
2019-01-17T07:38:36.791Z,4.51
2019-01-17T07:39:36.778Z,4.51
2019-01-17T07:40:36.715Z,4.51
2019-01-17T07:41:36.715Z,4.51
2019-01-17T07:42:36.781Z,4.51
2019-01-17T07:43:36.744Z,4.51
2019-01-17T07:44:36.726Z,4.51
2019-01-17T07:45:36.786Z,4.51
2019-01-17T07:46:36.792Z,4.51
2019-01-17T07:47:36.723Z,4.51
2019-01-17T07:48:36.798Z,4.51
2019-01-17T07:49:36.797Z,4.51
2019-01-17T07:50:36.748Z,4.51
2019-01-17T07:51:36.761Z,4.51
2019-01-17T07:52:36.755Z,4.51
2019-01-17T07:53:36.798Z,4.51
2019-01-17T07:54:36.807Z,4.51
2019-01-17T07:55:36.721Z,4.51
2019-01-17T07:56:36.817Z,4.51
2019-01-17T07:57:36.694Z,4.51
2019-01-17T07:58:36.738Z,4.51
2019-01-17T07:59:36.700Z,4.51
2019-01-17T08:00:36.698Z,4.51
2019-01-17T08:01:36.798Z,4.51
2019-01-17T08:02:36.700Z,4.51
2019-01-17T08:03:36.717Z,4.51
2019-01-17T08:04:36.791Z,4.51
2019-01-17T08:05:36.728Z,4.51
2019-01-17T08:06:36.682Z,4.51
2019-01-17T08:07:36.798Z,4.51
2019-01-17T08:08:36.737Z,4.51
2019-01-17T08:09:36.804Z,4.51
2019-01-17T08:10:36.740Z,4.51
2019-01-17T08:11:36.739Z,4.51
2019-01-17T08:12:36.804Z,4.51
2019-01-17T08:13:36.810Z,4.51
2019-01-17T08:14:36.804Z,4.51
2019-01-17T08:15:36.839Z,4.51
2019-01-17T08:16:36.805Z,4.51
2019-01-17T08:17:36.754Z,4.51
2019-01-17T08:18:36.798Z,4.51
2019-01-17T08:19:36.666Z,4.51
2019-01-17T08:20:36.683Z,4.51
2019-01-17T08:21:36.795Z,4.51
2019-01-17T08:22:36.731Z,4.51
2019-01-17T08:23:36.792Z,4.51
2019-01-17T08:24:36.774Z,4.51
2019-01-17T08:25:36.789Z,4.51
2019-01-17T08:26:36.798Z,4.51
2019-01-17T08:27:36.749Z,4.51
2019-01-17T08:28:36.794Z,4.51
2019-01-17T08:29:36.736Z,4.51
2019-01-17T08:30:36.800Z,4.51
2019-01-17T08:31:36.757Z,4.51
2019-01-17T08:32:36.706Z,4.51
2019-01-17T08:33:36.702Z,4.51
2019-01-17T08:34:36.741Z,4.51
2019-01-17T08:35:36.814Z,4.51
2019-01-17T08:36:36.811Z,4.51
2019-01-17T08:37:36.811Z,4.51
2019-01-17T08:38:36.755Z,4.51
2019-01-17T08:39:36.815Z,4.51
2019-01-17T08:40:36.823Z,4.51
2019-01-17T08:41:36.725Z,4.51
2019-01-17T08:42:36.812Z,4.51
2019-01-17T08:43:36.705Z,4.51
2019-01-17T08:44:36.817Z,4.51
2019-01-17T08:45:36.748Z,4.51
2019-01-17T08:46:36.816Z,4.51
2019-01-17T08:47:36.820Z,4.51
2019-01-17T08:48:36.769Z,4.51
2019-01-17T08:49:36.832Z,4.51
2019-01-17T08:50:36.749Z,4.51
2019-01-17T08:51:36.762Z,4.51
2019-01-17T08:52:36.856Z,4.51
2019-01-17T08:53:36.744Z,4.51
2019-01-17T08:54:36.718Z,4.51
2019-01-17T08:55:36.735Z,4.51
2019-01-17T08:56:36.827Z,4.51
2019-01-17T08:57:36.736Z,4.51
2019-01-17T08:58:36.754Z,4.51
2019-01-17T08:59:36.738Z,4.51
2019-01-17T09:00:36.694Z,4.51
2019-01-17T09:01:36.788Z,4.51
2019-01-17T09:02:36.704Z,4.51
2019-01-17T09:03:36.703Z,4.51
2019-01-17T09:04:36.720Z,4.51
2019-01-17T09:05:36.692Z,4.51
2019-01-17T09:06:36.785Z,4.51
2019-01-17T09:07:36.776Z,4.51
2019-01-17T09:08:36.757Z,4.51
2019-01-17T09:09:36.770Z,4.51
2019-01-17T09:10:36.840Z,4.51
2019-01-17T09:11:36.808Z,4.51
2019-01-17T09:12:36.759Z,4.51
2019-01-17T09:13:36.796Z,4.51
2019-01-17T09:14:36.749Z,4.51
2019-01-17T09:15:36.842Z,4.51
2019-01-17T09:16:36.733Z,4.51
2019-01-17T09:17:36.751Z,4.51
2019-01-17T09:18:36.838Z,4.51
2019-01-17T09:19:36.750Z,4.51
2019-01-17T09:20:36.770Z,4.51
2019-01-17T09:21:36.773Z,4.51
2019-01-17T09:22:36.707Z,4.51
2019-01-17T09:23:36.773Z,4.51
2019-01-17T09:24:36.753Z,4.51
2019-01-17T09:25:36.822Z,4.51
2019-01-17T09:26:36.756Z,4.51
2019-01-17T09:27:36.857Z,4.51
2019-01-17T09:28:36.789Z,4.51
2019-01-17T09:29:36.863Z,4.51
2019-01-17T09:30:36.789Z,4.51
2019-01-17T09:31:36.789Z,4.51
2019-01-17T09:32:36.798Z,4.51
2019-01-17T09:33:36.864Z,4.51
2019-01-17T09:34:36.818Z,4.51
2019-01-17T09:35:36.859Z,4.51
2019-01-17T09:36:36.793Z,4.51
2019-01-17T09:37:36.783Z,4.51
2019-01-17T09:38:36.798Z,4.51
2019-01-17T09:39:36.853Z,4.51
2019-01-17T09:40:36.796Z,4.51
2019-01-17T09:41:36.769Z,4.51
2019-01-17T09:42:36.861Z,4.51
2019-01-17T09:43:36.747Z,4.51
2019-01-17T09:44:36.855Z,4.51
2019-01-17T09:45:36.853Z,4.51
2019-01-17T09:46:36.786Z,4.51
2019-01-17T09:47:36.779Z,4.51
2019-01-17T09:48:36.771Z,4.51
2019-01-17T09:49:36.742Z,4.51
2019-01-17T09:50:36.776Z,4.51
2019-01-17T09:51:36.792Z,4.51
2019-01-17T09:52:36.819Z,4.51
2019-01-17T09:53:36.865Z,4.51
2019-01-17T09:54:36.810Z,4.51
2019-01-17T09:55:36.758Z,4.51
2019-01-17T09:56:36.868Z,4.51
2019-01-17T09:57:36.877Z,4.51
2019-01-17T09:58:36.810Z,4.51
2019-01-17T09:59:36.813Z,4.51
2019-01-17T10:00:36.873Z,4.51
2019-01-17T10:01:36.814Z,4.51
2019-01-17T10:02:36.881Z,4.51
2019-01-17T10:03:36.820Z,4.51
2019-01-17T10:04:36.818Z,4.51
2019-01-17T10:05:36.776Z,4.51
2019-01-17T10:06:36.819Z,4.51
2019-01-17T10:07:36.882Z,4.51
2019-01-17T10:08:36.817Z,4.51
2019-01-17T10:09:36.882Z,4.51
2019-01-17T10:10:36.884Z,4.51
2019-01-17T10:11:36.818Z,4.51
2019-01-17T10:12:36.774Z,4.51
2019-01-17T10:13:36.832Z,4.51
2019-01-17T10:14:36.903Z,4.51
2019-01-17T10:15:36.819Z,4.51
2019-01-17T10:16:36.819Z,4.51
2019-01-17T10:17:36.891Z,4.51
2019-01-17T10:18:36.820Z,4.51
2019-01-17T10:19:36.907Z,4.51
2019-01-17T10:20:36.894Z,4.51
2019-01-17T10:21:36.898Z,4.51
2019-01-17T10:22:36.826Z,4.51
2019-01-17T10:23:36.827Z,4.51
2019-01-17T10:24:36.857Z,4.51
2019-01-17T10:25:36.895Z,4.51
2019-01-17T10:26:36.833Z,4.51
2019-01-17T10:27:36.896Z,4.51
2019-01-17T10:28:36.866Z,4.51
2019-01-17T10:29:36.901Z,4.51
2019-01-17T10:30:36.839Z,4.51
2019-01-17T10:31:36.903Z,4.51
2019-01-17T10:32:36.831Z,4.51
2019-01-17T10:33:36.902Z,4.51
2019-01-17T10:34:36.904Z,4.51
2019-01-17T10:35:36.832Z,4.51
2019-01-17T10:36:36.832Z,4.51
2019-01-17T10:37:36.907Z,4.51
2019-01-17T10:38:36.834Z,4.51
2019-01-17T10:39:36.906Z,4.51
2019-01-17T10:40:36.837Z,4.51
2019-01-17T10:41:36.913Z,4.51
2019-01-17T10:42:36.839Z,4.51
2019-01-17T10:43:36.837Z,4.51
2019-01-17T10:44:36.908Z,4.51
2019-01-17T10:45:36.848Z,4.51
2019-01-17T10:46:36.839Z,4.51
2019-01-17T10:47:36.914Z,4.51
2019-01-17T10:48:36.941Z,4.51
2019-01-17T10:49:36.845Z,4.51
2019-01-17T10:50:36.845Z,4.51
2019-01-17T10:51:36.913Z,4.51
2019-01-17T10:52:36.853Z,4.51
2019-01-17T10:53:36.916Z,4.51
2019-01-17T10:54:36.873Z,4.51
2019-01-17T10:55:36.924Z,4.51
2019-01-17T10:56:41.332Z,4.51
2019-01-17T10:57:36.918Z,4.51
2019-01-17T10:58:36.851Z,4.51
2019-01-17T10:59:36.897Z,4.51
2019-01-17T11:00:36.854Z,4.51
2019-01-17T11:01:36.930Z,4.51
2019-01-17T11:02:36.856Z,4.51
2019-01-17T11:03:36.854Z,4.51
2019-01-17T11:04:36.924Z,4.51
2019-01-17T11:05:36.864Z,4.51
2019-01-17T11:06:36.924Z,4.51
2019-01-17T11:07:36.900Z,4.51
2019-01-17T11:08:36.926Z,4.51
2019-01-17T11:09:36.932Z,4.51
2019-01-17T11:10:36.860Z,4.51
2019-01-17T11:11:36.926Z,4.51
2019-01-17T11:12:36.871Z,4.51
2019-01-17T11:13:37.983Z,4.51
2019-01-17T11:14:36.867Z,4.51
2019-01-17T11:15:36.954Z,4.51
2019-01-17T11:16:36.868Z,4.51
2019-01-17T11:17:36.821Z,4.51
2019-01-17T11:18:36.795Z,4.51
2019-01-17T11:19:36.887Z,4.51
2019-01-17T11:20:36.862Z,4.51
2019-01-17T11:21:36.912Z,4.51
2019-01-17T11:22:36.857Z,4.51
2019-01-17T11:23:36.874Z,4.51
2019-01-17T11:24:36.866Z,4.51
2019-01-17T11:25:36.915Z,4.51
2019-01-17T11:26:36.877Z,4.51
2019-01-17T11:27:36.864Z,4.51
2019-01-17T11:28:36.876Z,4.51
2019-01-17T11:29:36.873Z,4.51
2019-01-17T11:30:36.940Z,4.51
2019-01-17T11:31:36.878Z,4.51
2019-01-17T11:32:36.876Z,4.51
2019-01-17T11:33:36.880Z,4.51
2019-01-17T11:34:36.874Z,4.51
2019-01-17T11:35:36.876Z,4.51
2019-01-17T11:36:36.947Z,4.51
2019-01-17T11:37:36.950Z,4.51
2019-01-17T11:38:36.946Z,4.51
2019-01-17T11:39:36.882Z,4.51
2019-01-17T11:40:36.945Z,4.51
2019-01-17T11:41:36.883Z,4.51
2019-01-17T11:42:36.910Z,4.51
2019-01-17T11:43:36.890Z,4.51
2019-01-17T11:44:36.952Z,4.51
2019-01-17T11:46:36.949Z,4.51
2019-01-17T11:47:36.890Z,4.51
2019-01-17T11:48:36.962Z,4.51
2019-01-17T11:49:36.891Z,4.51
2019-01-17T11:50:36.990Z,4.51
2019-01-17T11:51:36.900Z,4.51
2019-01-17T11:52:36.889Z,4.51
2019-01-17T11:53:36.955Z,4.51
2019-01-17T11:54:36.897Z,4.51
2019-01-17T11:55:36.894Z,4.51
2019-01-17T11:56:40.958Z,4.51
2019-01-17T11:57:36.888Z,4.51
2019-01-17T11:58:36.959Z,4.51
2019-01-17T11:59:36.890Z,4.51
2019-01-17T12:00:36.895Z,4.51
2019-01-17T12:01:36.986Z,4.51
2019-01-17T12:02:39.289Z,4.51
2019-01-17T12:03:36.895Z,4.51
2019-01-17T12:04:36.961Z,4.51
2019-01-17T12:05:36.902Z,4.51
2019-01-17T12:06:36.972Z,4.51
2019-01-17T12:07:36.903Z,4.51
2019-01-17T12:08:36.971Z,4.51
2019-01-17T12:09:38.188Z,4.51
2019-01-17T12:10:36.975Z,4.51
2019-01-17T12:11:36.970Z,4.51
2019-01-17T12:12:36.905Z,4.51
2019-01-17T12:13:36.973Z,4.51
2019-01-17T12:14:36.900Z,4.51
2019-01-17T12:15:36.923Z,4.51
2019-01-17T12:16:37.040Z,4.51
2019-01-17T12:17:36.971Z,4.51
2019-01-17T12:18:36.909Z,4.51
2019-01-17T12:19:36.942Z,4.51
2019-01-17T12:20:36.914Z,4.51
2019-01-17T12:21:36.968Z,4.51
2019-01-17T12:22:36.867Z,4.51
2019-01-17T12:23:36.964Z,4.51
2019-01-17T12:24:36.917Z,4.51
2019-01-17T12:25:36.962Z,4.51
2019-01-17T12:26:36.903Z,4.51
2019-01-17T12:27:42.477Z,4.51
2019-01-17T12:28:36.924Z,4.51
2019-01-17T12:29:36.916Z,4.51
2019-01-17T12:30:36.983Z,4.51
2019-01-17T12:31:36.914Z,4.51
2019-01-17T12:32:36.991Z,4.51
2019-01-17T12:33:36.918Z,4.51
2019-01-17T12:34:36.921Z,4.51
2019-01-17T12:35:36.987Z,4.51
2019-01-17T12:36:36.987Z,4.51
2019-01-17T12:37:36.919Z,4.51
2019-01-17T12:38:36.891Z,4.51
2019-01-17T12:39:36.975Z,4.51
2019-01-17T12:40:36.993Z,4.51
2019-01-17T12:41:36.975Z,4.51
2019-01-17T12:42:36.933Z,4.51
2019-01-17T12:43:36.993Z,4.51
2019-01-17T12:44:36.894Z,4.51
2019-01-17T12:45:36.875Z,4.51
2019-01-17T12:46:36.900Z,4.51
2019-01-17T12:47:36.899Z,4.51
2019-01-17T12:48:37.000Z,4.51
2019-01-17T12:49:36.929Z,4.51
2019-01-17T12:50:36.997Z,4.51
2019-01-17T12:51:36.929Z,4.51
2019-01-17T12:52:37.001Z,4.51
2019-01-17T12:53:36.938Z,4.51
2019-01-17T12:54:36.997Z,4.51
2019-01-17T12:55:36.936Z,4.51
2019-01-17T12:56:36.999Z,4.51
2019-01-17T12:57:37.005Z,4.51
2019-01-17T12:58:36.872Z,4.51
2019-01-17T12:59:36.936Z,4.51
2019-01-17T13:00:36.998Z,4.51
2019-01-17T13:01:36.893Z,4.51
2019-01-17T13:02:37.005Z,4.51
2019-01-17T13:03:36.943Z,4.51
2019-01-17T13:04:37.043Z,4.51
2019-01-17T13:05:36.999Z,4.51
2019-01-17T13:06:36.900Z,4.51
2019-01-17T13:07:36.907Z,4.51
2019-01-17T13:08:36.913Z,4.51
2019-01-17T13:09:36.913Z,4.51
2019-01-17T13:10:36.900Z,4.51
2019-01-17T13:11:36.967Z,4.51
2019-01-17T13:12:37.005Z,4.51
2019-01-17T13:13:36.895Z,4.51
2019-01-17T13:14:36.958Z,4.51
2019-01-17T13:15:37.008Z,4.51
2019-01-17T13:16:37.017Z,4.51
2019-01-17T13:17:36.932Z,4.51
2019-01-17T13:18:36.959Z,4.51
2019-01-17T13:19:36.974Z,4.51